createdAt,value
2023-02-04T00:00:52.020Z,1.00
2023-02-04T00:04:59.408Z,1.40
2023-02-04T00:09:02.741Z,0.80
2023-02-04T00:13:06.461Z,1.27
2023-02-04T00:17:13.042Z,1.00
2023-02-04T00:21:18.019Z,1.17
2023-02-04T00:25:46.778Z,0.80
2023-02-04T00:29:50.144Z,1.10
2023-02-04T00:33:57.854Z,1.10
2023-02-04T00:38:02.703Z,1.00
2023-02-04T00:42:07.529Z,0.80
2023-02-04T00:46:12.844Z,0.80
2023-02-04T00:50:19.573Z,0.90
2023-02-04T00:54:24.619Z,1.20
2023-02-04T00:58:54.634Z,1.17
2023-02-04T01:02:58.344Z,0.63
2023-02-04T01:07:04.129Z,0.93
2023-02-04T01:11:09.087Z,0.73
2023-02-04T01:21:15.564Z,1.03
2023-02-04T01:26:28.639Z,0.70
2023-02-04T01:30:33.872Z,0.90
2023-02-04T01:34:42.038Z,0.70
2023-02-04T01:38:47.792Z,0.70
2023-02-04T01:42:51.602Z,0.70
2023-02-04T01:47:12.177Z,0.90
2023-02-04T01:51:18.518Z,0.50
2023-02-04T01:55:38.258Z,0.70
2023-02-04T01:59:45.135Z,0.60
2023-02-04T02:03:50.033Z,0.70
2023-02-04T02:07:56.393Z,1.07
2023-02-04T02:12:40.285Z,0.70
2023-02-04T02:16:44.933Z,0.67
2023-02-04T02:20:50.547Z,0.73
2023-02-04T02:25:48.479Z,0.50
2023-02-04T02:29:53.652Z,0.50
2023-02-04T02:39:34.323Z,0.43
2023-02-04T02:43:39.198Z,0.50
2023-02-04T02:47:46.770Z,0.50
2023-02-04T02:51:50.819Z,0.40
2023-02-04T02:56:05.577Z,0.40
2023-02-04T03:05:02.021Z,0.47
2023-02-04T03:09:08.609Z,0.40
2023-02-04T03:13:28.496Z,0.40
2023-02-04T03:17:34.431Z,0.50
2023-02-04T03:21:39.542Z,0.40
2023-02-04T03:25:49.131Z,0.50
2023-02-04T03:29:53.984Z,0.40
2023-02-04T03:34:22.612Z,0.50
2023-02-04T03:38:27.756Z,0.90
2023-02-04T03:42:31.309Z,0.30
2023-02-04T03:46:34.879Z,0.70
2023-02-04T03:50:39.692Z,0.50
2023-02-04T03:54:44.582Z,0.70
2023-02-04T03:58:48.328Z,0.50
2023-02-04T04:02:51.874Z,0.50
2023-02-04T04:06:59.978Z,0.40
2023-02-04T04:11:05.338Z,0.33
2023-02-04T04:15:09.823Z,0.30
2023-02-04T04:19:13.406Z,0.17
2023-02-04T04:23:22.071Z,0.27
2023-02-04T04:27:27.329Z,0.40
2023-02-04T04:31:31.002Z,0.20
2023-02-04T04:35:34.888Z,0.20
2023-02-04T04:39:38.609Z,0.27
2023-02-04T04:43:44.769Z,0.30
2023-02-04T04:47:48.565Z,0.30
2023-02-04T04:51:54.251Z,0.20
2023-02-04T04:55:57.726Z,0.30
2023-02-04T05:00:02.957Z,0.30
2023-02-04T05:04:06.670Z,0.30
2023-02-04T05:08:14.229Z,0.30
2023-02-04T05:12:21.222Z,0.30
2023-02-04T05:16:26.146Z,0.43
2023-02-04T05:20:30.431Z,0.20
2023-02-04T05:24:52.814Z,0.30
2023-02-04T05:28:56.414Z,0.27
2023-02-04T05:33:03.686Z,0.47
2023-02-04T05:37:07.132Z,0.30
2023-02-04T05:41:23.976Z,0.30
2023-02-04T05:45:27.465Z,0.30
2023-02-04T05:49:46.909Z,0.30
2023-02-04T05:53:50.405Z,0.60
2023-02-04T05:58:06.138Z,0.30
2023-02-04T06:02:09.679Z,0.40
2023-02-04T06:06:14.566Z,0.50
2023-02-04T06:10:19.004Z,0.50
2023-02-04T06:14:22.375Z,0.50
2023-02-04T06:18:26.096Z,0.47
2023-02-04T06:22:31.192Z,0.83
2023-02-04T06:26:35.772Z,0.60
2023-02-04T06:30:39.395Z,0.50
2023-02-04T06:34:42.781Z,0.60
2023-02-04T06:39:02.107Z,0.70
2023-02-04T06:43:05.593Z,0.87
2023-02-04T06:47:27.653Z,1.03
2023-02-04T06:51:31.058Z,0.70
2023-02-04T06:55:48.713Z,0.80
2023-02-04T06:59:52.311Z,0.80
2023-02-04T07:04:12.206Z,0.80
2023-02-04T07:08:36.415Z,1.30
2023-02-04T07:12:41.926Z,1.33
2023-02-04T07:16:46.654Z,2.17
2023-02-04T07:20:54.824Z,1.10
2023-02-04T07:24:58.392Z,0.97
2023-02-04T07:29:03.351Z,1.47
2023-02-04T07:33:06.852Z,1.13
2023-02-04T07:37:10.216Z,1.13
2023-02-04T07:41:16.981Z,2.27
2023-02-04T07:45:22.349Z,1.03
2023-02-04T07:49:25.845Z,1.20
2023-02-04T07:53:29.270Z,2.73
2023-02-04T07:57:34.242Z,1.30
2023-02-04T08:01:39.282Z,1.37
2023-02-04T08:06:33.954Z,1.10
2023-02-04T08:10:37.497Z,0.60
2023-02-04T08:20:42.131Z,0.80
2023-02-04T08:25:00.536Z,0.60
2023-02-04T08:29:04.139Z,0.77
2023-02-04T08:33:33.171Z,0.80
2023-02-04T08:37:38.020Z,0.60
2023-02-04T08:42:31.006Z,1.37
2023-02-04T08:46:35.086Z,0.87
2023-02-04T08:51:32.137Z,0.90
2023-02-04T08:55:37.171Z,0.77
2023-02-04T09:00:32.646Z,0.90
2023-02-04T09:04:36.315Z,0.70
2023-02-04T09:08:43.819Z,0.63
2023-02-04T09:12:48.627Z,0.40
2023-02-04T09:16:53.183Z,0.60
2023-02-04T09:21:00.998Z,0.50
2023-02-04T09:25:04.814Z,0.57
2023-02-04T09:30:21.784Z,0.50
2023-02-04T09:34:26.674Z,0.50
2023-02-04T09:38:30.303Z,0.40
2023-02-04T09:42:40.987Z,0.70
2023-02-04T09:46:48.356Z,0.30
2023-02-04T09:51:02.134Z,0.40
2023-02-04T09:55:13.115Z,0.37
2023-02-04T09:59:18.542Z,1.40
2023-02-04T10:03:23.812Z,0.70
2023-02-04T10:07:30.098Z,0.60
2023-02-04T10:11:39.381Z,0.47
2023-02-04T10:15:43.396Z,0.63
2023-02-04T10:20:38.760Z,0.30
2023-02-04T10:24:43.728Z,0.30
2023-02-04T10:29:37.207Z,0.40
2023-02-04T10:33:40.770Z,0.50
2023-02-04T10:37:44.349Z,0.40
2023-02-04T10:41:59.427Z,0.47
2023-02-04T10:46:05.051Z,0.43
2023-02-04T10:50:30.786Z,0.57
2023-02-04T10:54:39.028Z,0.80
2023-02-04T10:58:46.532Z,0.47
2023-02-04T11:07:17.109Z,0.60
2023-02-04T11:11:24.286Z,0.40
2023-02-04T11:15:44.831Z,0.30
2023-02-04T11:19:54.151Z,0.50
2023-02-04T11:24:08.989Z,0.50
2023-02-04T11:28:16.625Z,0.97
2023-02-04T11:32:40.318Z,0.63
2023-02-04T11:37:09.378Z,0.57
2023-02-04T11:41:18.091Z,0.70
2023-02-04T11:45:32.380Z,0.60
2023-02-04T11:55:08.730Z,0.50
2023-02-04T12:05:42.554Z,0.60
2023-02-04T12:09:49.914Z,0.63
2023-02-04T12:14:07.525Z,0.60
2023-02-04T12:18:14.998Z,0.40
2023-02-04T12:22:18.495Z,0.50
2023-02-04T12:26:25.824Z,0.60
2023-02-04T12:30:30.705Z,0.40
2023-02-04T12:35:00.669Z,0.60
2023-02-04T12:39:05.344Z,0.70
2023-02-04T12:43:08.926Z,0.70
2023-02-04T12:47:14.888Z,0.70
2023-02-04T12:51:18.243Z,0.60
2023-02-04T12:55:31.261Z,0.87
2023-02-04T12:59:36.030Z,1.00
2023-02-04T13:03:41.427Z,1.40
2023-02-04T13:07:44.963Z,1.23
2023-02-04T13:12:08.197Z,1.27
2023-02-04T13:16:12.687Z,0.70
2023-02-04T13:20:17.741Z,1.10
2023-02-04T13:24:22.452Z,0.80
2023-02-04T13:28:28.050Z,0.70
2023-02-04T13:33:28.474Z,0.60
2023-02-04T13:37:33.444Z,0.60
2023-02-04T13:41:38.021Z,0.60
2023-02-04T13:45:47.611Z,1.00
2023-02-04T13:49:51.155Z,0.67
2023-02-04T13:54:02.246Z,0.90
2023-02-04T13:58:05.686Z,0.90
2023-02-04T14:02:10.687Z,0.60
2023-02-04T14:06:21.826Z,0.50
2023-02-04T14:10:27.236Z,0.83
2023-02-04T14:14:30.738Z,0.50
2023-02-04T14:18:34.185Z,0.50
2023-02-04T14:22:39.713Z,0.50
2023-02-04T14:26:44.509Z,0.50
2023-02-04T14:30:48.513Z,0.53
2023-02-04T14:34:52.144Z,0.60
2023-02-04T14:39:21.352Z,0.57
2023-02-04T14:43:27.942Z,0.40
2023-02-04T14:47:31.379Z,0.30
2023-02-04T14:51:34.809Z,0.30
2023-02-04T14:56:30.084Z,0.40
2023-02-04T15:00:35.102Z,0.63
2023-02-04T15:05:04.840Z,0.70
2023-02-04T15:09:08.223Z,0.50
2023-02-04T15:13:12.638Z,0.60
2023-02-04T15:17:18.944Z,0.50
2023-02-04T15:21:24.452Z,0.50
2023-02-04T15:25:34.005Z,1.30
2023-02-04T15:29:37.650Z,2.03
2023-02-04T15:33:52.982Z,0.60
2023-02-04T15:37:58.048Z,0.53
2023-02-04T15:42:05.574Z,0.83
2023-02-04T15:46:09.426Z,0.50
2023-02-04T15:50:21.382Z,0.67
2023-02-04T15:54:24.986Z,1.00
2023-02-04T15:58:32.650Z,0.80
2023-02-04T16:02:36.588Z,0.67
2023-02-04T16:06:58.312Z,1.40
2023-02-04T16:11:02.385Z,0.60
2023-02-04T16:15:25.390Z,0.60
2023-02-04T16:19:29.672Z,0.70
2023-02-04T16:23:34.727Z,0.70
2023-02-04T16:27:49.600Z,0.87
2023-02-04T16:31:54.265Z,0.90
2023-02-04T16:36:01.194Z,0.77
2023-02-04T16:40:53.208Z,0.63
2023-02-04T16:44:56.812Z,0.70
2023-02-04T16:49:06.941Z,0.80
2023-02-04T16:53:15.086Z,0.90
2023-02-04T16:57:39.252Z,0.70
2023-02-04T17:01:42.902Z,0.90
2023-02-04T17:05:59.266Z,0.97
2023-02-04T17:10:02.687Z,0.60
2023-02-04T17:14:24.824Z,0.70
2023-02-04T17:18:29.954Z,0.73
2023-02-04T17:22:33.454Z,0.77
2023-02-04T17:26:39.581Z,0.70
2023-02-04T17:30:46.345Z,0.57
2023-02-04T17:35:15.339Z,0.87
2023-02-04T17:39:18.721Z,1.70
2023-02-04T17:43:26.731Z,1.10
2023-02-04T17:47:31.643Z,0.90
2023-02-04T17:51:36.579Z,0.80
2023-02-04T17:55:42.945Z,0.90
2023-02-04T17:59:46.446Z,0.80
2023-02-04T18:03:53.539Z,0.90
2023-02-04T18:08:01.510Z,0.97
2023-02-04T18:12:15.614Z,0.90
2023-02-04T18:16:25.872Z,1.27
2023-02-04T18:20:33.937Z,0.97
2023-02-04T18:24:46.739Z,0.70
2023-02-04T18:28:52.537Z,0.93
2023-02-04T18:32:56.438Z,0.80
2023-02-04T18:37:02.102Z,0.87
2023-02-04T18:41:27.709Z,0.80
2023-02-04T18:45:34.104Z,0.90
2023-02-04T18:49:40.615Z,0.83
2023-02-04T18:53:46.355Z,0.70
2023-02-04T18:57:55.429Z,1.00
2023-02-04T19:02:03.700Z,0.90
2023-02-04T19:06:25.960Z,1.10
2023-02-04T19:10:33.989Z,0.83
2023-02-04T19:14:42.100Z,0.70
2023-02-04T19:18:45.522Z,0.70
2023-02-04T19:22:54.172Z,1.20
2023-02-04T19:27:00.232Z,0.80
2023-02-04T19:31:07.333Z,0.90
2023-02-04T19:35:21.618Z,0.90
2023-02-04T19:39:41.439Z,0.90
2023-02-04T19:43:49.833Z,1.30
2023-02-04T19:47:58.219Z,1.10
2023-02-04T19:52:01.544Z,0.90
2023-02-04T19:56:30.386Z,1.13
2023-02-04T20:00:49.948Z,1.67
2023-02-04T20:04:56.823Z,1.80
2023-02-04T20:09:18.598Z,1.27
2023-02-04T20:13:24.792Z,1.40
2023-02-04T20:17:40.421Z,1.30
2023-02-04T20:21:56.878Z,1.43
2023-02-04T20:26:02.731Z,1.60
2023-02-04T20:30:33.643Z,1.10
2023-02-04T20:34:40.908Z,1.30
2023-02-04T20:39:28.263Z,1.10
2023-02-04T20:43:35.645Z,1.10
2023-02-04T20:47:39.082Z,1.40
2023-02-04T20:51:44.147Z,1.20
2023-02-04T20:56:43.978Z,1.27
2023-02-04T21:00:52.450Z,1.73
2023-02-04T21:04:56.209Z,0.90
2023-02-04T21:09:22.334Z,2.10
2023-02-04T21:13:26.386Z,1.43
2023-02-04T21:18:01.788Z,0.90
2023-02-04T21:22:31.011Z,1.00
2023-02-04T21:26:51.207Z,0.83
2023-02-04T21:30:54.543Z,1.27
2023-02-04T21:34:58.045Z,0.87
2023-02-04T21:39:01.649Z,1.00
2023-02-04T21:43:15.729Z,0.90
2023-02-04T21:47:18.999Z,1.10
2023-02-04T21:51:22.559Z,1.17
2023-02-04T21:55:26.181Z,1.07
2023-02-04T21:59:37.121Z,0.80
2023-02-04T22:03:40.542Z,0.90
2023-02-04T22:07:43.881Z,1.00
2023-02-04T22:12:13.052Z,1.03
2023-02-04T22:16:34.292Z,0.83
2023-02-04T22:20:41.464Z,0.80
2023-02-04T22:24:44.776Z,1.00
2023-02-04T22:28:50.373Z,0.70
2023-02-04T22:32:55.928Z,0.80
2023-02-04T22:37:00.669Z,0.93
2023-02-04T22:41:03.989Z,0.80
2023-02-04T22:45:59.716Z,0.80
2023-02-04T22:50:04.561Z,0.70
2023-02-04T22:54:07.854Z,0.87
2023-02-04T22:58:12.417Z,1.10
2023-02-04T23:02:19.435Z,0.70
2023-02-04T23:06:51.871Z,1.03
2023-02-04T23:10:55.295Z,0.90
2023-02-04T23:15:05.570Z,0.90
2023-02-04T23:19:09.093Z,0.80
2023-02-04T23:23:17.785Z,0.87
2023-02-04T23:27:21.223Z,0.70
2023-02-04T23:31:24.645Z,0.80
2023-02-04T23:35:34.140Z,1.03
2023-02-04T23:39:39.170Z,0.77
2023-02-04T23:43:42.593Z,1.00
2023-02-04T23:48:23.177Z,0.80
2023-02-04T23:52:26.675Z,1.20
2023-02-04T23:56:31.411Z,1.10
